Aviatik   Themenpakete

METAR Schweiz  Beispiel


VQLA02 LSSW 121608
MeteoSchweiz / MeteoSuisse / MeteoSvizzera / MeteoSwiss
METAR LSZHZURICH 121520Z 26006KT 200V310 9999 FEW050 26/14 Q1020 NOSIG=
METAR LSZHZURICH 121550Z 28008KT 240V320 9999 FEW050 25/14 Q1020 NOSIG=
METAR LSGGGENEVA 121520Z 06005KT 350V140 9999 FEW055 27/14 Q1020 NOSIG=
METAR LSGGGENEVA 121550Z 04007KT 350V070 9999 FEW060 27/14 Q1019 NOSIG=
METAR LFSBBASLE-MULHOUSE 121600Z 25005KT 220V280 9999 FEW055 27/14 Q1019 NOSIG=
METAR LSZBBERN BELP 121520Z 28005KT 9999 FEW048 27/13 Q1020 NOSIG=
METAR LSZBBERN BELP 121550Z 30005KT 9999 FEW044 26/14 Q1020 NOSIG=
METAR RRALSZALUGANO 121520Z 25003KT 190V330 9999 FEW050 30/18 Q1016 NOSIG=
METAR LSZALUGANO 121550Z 25004KT 170V300 9999 FEW050 30/18 Q1016 NOSIG=
METAR LSZGGRENCHEN 121520Z NIL=
METAR LSZGGRENCHEN 121550Z VRB01KT 9999 FEW060 26/14 Q1020 NOSIG=
METAR LSZRST GALLEN ALTENRHEIN 121520Z VRB02KT 9999 FEW055 24/14 Q1020 NOSIG RMK M=
METAR LSZRST GALLEN ALTENRHEIN 121550Z VRB02KT 9999 FEW055 24/15 Q1019 NOSIG RMK N=
METAR LSZCBUOCHS 121520Z NIL=
METAR LSZCBUOCHS 121550Z NIL=
METAR LSGSSION 121520Z NIL=
METAR LSGSSION 121550Z NIL=
METAR LSGCLES EPLATURES 121520Z 27004KT 240V030 9999 SCT035 21/12 Q1023=
METAR LSGCLES EPLATURES 121550Z 35003KT 280V050 9999 FEW040 21/12 Q1023=
METAR LSZLLOCARNO 121550Z AUTO 25004KT 220V280 9999NDV NCD 28/18 Q1015 RMK BLU=
METAR LSZLLOCARNO NIL=
METAR LSZSSAMEDAN 121520Z 34008KT 300V010 9999 FEW070 21/05 Q1023=
METAR LSZSSAMEDAN 121550Z 33011KT 9999 FEW070 20/06 Q1023=
METAR LSMAALPNACH 121550Z AUTO 03007KT 350V060 9999NDV NCD 25/15 Q1020 RMK BLU=
METAR LSMAALPNACH NIL=
METAR LSMDDUBENDORF 121550Z AUTO 31006KT 260V350 9999NDV FEW051 25/14 Q1020 RMK BLU=
METAR LSMDDUBENDORF NIL=
METAR LSMEEMMEN AB 121550Z AUTO VRB02KT 9999NDV FEW048 26/14 Q1020 RMK BLU=
METAR LSMEEMMEN AB NIL=
METAR LSMMMEIRINGEN 121550Z AUTO 21003KT 150V280 9999NDV FEW047 25/16 Q1020 RMK BLU=
METAR LSMMMEIRINGEN NIL=
METAR LSMPPAYERNE 121550Z AUTO VRB01KT ////NDV NCD 27/14 Q1020 RMK MIS=
METAR LSMPPAYERNE NIL=
METAR LSMSSION (MIL) 121550Z AUTO 26016KT 9999NDV NCD 27/14 Q1017 RMK BLU=
METAR LSMSSION (MIL) NIL=





top